sensor_id;sensor_type;location;lat;lon;timestamp;P1;durP1;ratioP1;P2;durP2;ratioP2
23802;SDS011;12082;51.786;6.018;2023-07-13T00:01:14;42.17;;;39.87;;
23802;SDS011;12082;51.786;6.018;2023-07-13T00:03:41;41.43;;;39.00;;
23802;SDS011;12082;51.786;6.018;2023-07-13T00:06:07;42.10;;;40.00;;
23802;SDS011;12082;51.786;6.018;2023-07-13T00:08:34;42.17;;;39.97;;
23802;SDS011;12082;51.786;6.018;2023-07-13T00:11:00;42.50;;;39.47;;
23802;SDS011;12082;51.786;6.018;2023-07-13T00:13:28;43.10;;;40.57;;
23802;SDS011;12082;51.786;6.018;2023-07-13T00:15:54;43.00;;;40.43;;
23802;SDS011;12082;51.786;6.018;2023-07-13T00:18:21;42.60;;;40.17;;
23802;SDS011;12082;51.786;6.018;2023-07-13T00:20:46;42.03;;;39.70;;
23802;SDS011;12082;51.786;6.018;2023-07-13T00:23:12;43.37;;;41.07;;
23802;SDS011;12082;51.786;6.018;2023-07-13T00:25:38;43.90;;;40.90;;
23802;SDS011;12082;51.786;6.018;2023-07-13T00:28:03;43.00;;;40.90;;
23802;SDS011;12082;51.786;6.018;2023-07-13T00:30:29;44.07;;;41.70;;
23802;SDS011;12082;51.786;6.018;2023-07-13T00:32:54;41.33;;;39.33;;
23802;SDS011;12082;51.786;6.018;2023-07-13T00:35:20;41.47;;;39.07;;
23802;SDS011;12082;51.786;6.018;2023-07-13T00:37:46;40.93;;;38.77;;
23802;SDS011;12082;51.786;6.018;2023-07-13T00:40:12;41.97;;;39.87;;
23802;SDS011;12082;51.786;6.018;2023-07-13T00:42:39;41.73;;;39.63;;
23802;SDS011;12082;51.786;6.018;2023-07-13T00:46:02;43.20;;;40.90;;
23802;SDS011;12082;51.786;6.018;2023-07-13T00:47:51;43.50;;;40.90;;
23802;SDS011;12082;51.786;6.018;2023-07-13T00:50:17;42.43;;;40.03;;
23802;SDS011;12082;51.786;6.018;2023-07-13T00:52:45;42.13;;;39.77;;
23802;SDS011;12082;51.786;6.018;2023-07-13T00:55:13;43.77;;;41.07;;
23802;SDS011;12082;51.786;6.018;2023-07-13T00:57:40;44.27;;;41.97;;
23802;SDS011;12082;51.786;6.018;2023-07-13T01:00:07;44.30;;;41.53;;
23802;SDS011;12082;51.786;6.018;2023-07-13T01:02:34;43.67;;;41.37;;
23802;SDS011;12082;51.786;6.018;2023-07-13T01:05:08;44.50;;;41.73;;
23802;SDS011;12082;51.786;6.018;2023-07-13T01:07:38;45.43;;;42.83;;
23802;SDS011;12082;51.786;6.018;2023-07-13T01:10:06;46.23;;;42.73;;
23802;SDS011;12082;51.786;6.018;2023-07-13T01:12:32;44.17;;;41.63;;
23802;SDS011;12082;51.786;6.018;2023-07-13T01:14:58;44.33;;;41.93;;
23802;SDS011;12082;51.786;6.018;2023-07-13T01:17:26;45.33;;;43.00;;
23802;SDS011;12082;51.786;6.018;2023-07-13T01:19:53;47.23;;;44.53;;
23802;SDS011;12082;51.786;6.018;2023-07-13T01:22:19;44.77;;;42.37;;
23802;SDS011;12082;51.786;6.018;2023-07-13T01:24:50;45.13;;;42.53;;
23802;SDS011;12082;51.786;6.018;2023-07-13T01:27:17;45.73;;;43.40;;
23802;SDS011;12082;51.786;6.018;2023-07-13T01:29:45;46.40;;;43.70;;
23802;SDS011;12082;51.786;6.018;2023-07-13T01:32:13;50.23;;;47.43;;
23802;SDS011;12082;51.786;6.018;2023-07-13T01:34:41;51.30;;;48.07;;
23802;SDS011;12082;51.786;6.018;2023-07-13T01:37:10;49.80;;;46.97;;
23802;SDS011;12082;51.786;6.018;2023-07-13T01:39:36;50.17;;;47.10;;
23802;SDS011;12082;51.786;6.018;2023-07-13T01:42:03;49.70;;;46.90;;
23802;SDS011;12082;51.786;6.018;2023-07-13T01:44:28;48.97;;;46.20;;
23802;SDS011;12082;51.786;6.018;2023-07-13T01:46:54;49.20;;;46.53;;
23802;SDS011;12082;51.786;6.018;2023-07-13T01:49:20;51.00;;;48.10;;
23802;SDS011;12082;51.786;6.018;2023-07-13T01:51:46;49.80;;;46.57;;
23802;SDS011;12082;51.786;6.018;2023-07-13T01:54:11;49.93;;;47.33;;
23802;SDS011;12082;51.786;6.018;2023-07-13T01:56:37;51.37;;;47.90;;
23802;SDS011;12082;51.786;6.018;2023-07-13T01:59:02;51.10;;;48.00;;
23802;SDS011;12082;51.786;6.018;2023-07-13T02:01:28;53.50;;;50.37;;
23802;SDS011;12082;51.786;6.018;2023-07-13T02:03:53;54.33;;;50.73;;
23802;SDS011;12082;51.786;6.018;2023-07-13T02:06:19;54.03;;;50.87;;
23802;SDS011;12082;51.786;6.018;2023-07-13T02:08:44;52.87;;;50.07;;
23802;SDS011;12082;51.786;6.018;2023-07-13T02:11:10;55.30;;;52.50;;
23802;SDS011;12082;51.786;6.018;2023-07-13T02:13:36;55.60;;;52.37;;
23802;SDS011;12082;51.786;6.018;2023-07-13T02:16:01;54.03;;;51.03;;
23802;SDS011;12082;51.786;6.018;2023-07-13T02:18:27;56.90;;;53.47;;
23802;SDS011;12082;51.786;6.018;2023-07-13T02:20:53;55.57;;;52.20;;
23802;SDS011;12082;51.786;6.018;2023-07-13T02:23:18;55.97;;;52.77;;
23802;SDS011;12082;51.786;6.018;2023-07-13T02:25:44;55.20;;;51.60;;
23802;SDS011;12082;51.786;6.018;2023-07-13T02:28:10;54.57;;;51.23;;
23802;SDS011;12082;51.786;6.018;2023-07-13T02:30:36;53.60;;;50.53;;
23802;SDS011;12082;51.786;6.018;2023-07-13T02:33:02;53.60;;;50.57;;
23802;SDS011;12082;51.786;6.018;2023-07-13T02:35:28;56.00;;;52.87;;
23802;SDS011;12082;51.786;6.018;2023-07-13T02:37:53;57.53;;;54.60;;
23802;SDS011;12082;51.786;6.018;2023-07-13T02:40:19;57.40;;;54.33;;
23802;SDS011;12082;51.786;6.018;2023-07-13T02:42:45;56.07;;;52.47;;
23802;SDS011;12082;51.786;6.018;2023-07-13T02:45:10;56.80;;;53.60;;
23802;SDS011;12082;51.786;6.018;2023-07-13T02:47:37;56.03;;;52.73;;
23802;SDS011;12082;51.786;6.018;2023-07-13T02:50:05;55.57;;;52.43;;
23802;SDS011;12082;51.786;6.018;2023-07-13T02:52:31;56.70;;;53.53;;
23802;SDS011;12082;51.786;6.018;2023-07-13T02:54:56;58.90;;;55.97;;
23802;SDS011;12082;51.786;6.018;2023-07-13T02:57:22;57.53;;;54.00;;
23802;SDS011;12082;51.786;6.018;2023-07-13T02:59:47;59.20;;;55.70;;
23802;SDS011;12082;51.786;6.018;2023-07-13T03:02:13;61.13;;;57.10;;
23802;SDS011;12082;51.786;6.018;2023-07-13T03:04:38;61.30;;;57.57;;
23802;SDS011;12082;51.786;6.018;2023-07-13T03:07:05;62.33;;;58.97;;
23802;SDS011;12082;51.786;6.018;2023-07-13T03:09:32;63.03;;;59.00;;
23802;SDS011;12082;51.786;6.018;2023-07-13T03:11:58;59.27;;;55.80;;
23802;SDS011;12082;51.786;6.018;2023-07-13T03:14:24;57.20;;;54.20;;
23802;SDS011;12082;51.786;6.018;2023-07-13T03:16:50;57.43;;;54.43;;
23802;SDS011;12082;51.786;6.018;2023-07-13T03:19:16;58.60;;;55.40;;
23802;SDS011;12082;51.786;6.018;2023-07-13T03:21:43;59.10;;;55.77;;
23802;SDS011;12082;51.786;6.018;2023-07-13T03:24:09;60.53;;;56.60;;
23802;SDS011;12082;51.786;6.018;2023-07-13T03:26:35;60.03;;;56.80;;
23802;SDS011;12082;51.786;6.018;2023-07-13T03:29:00;61.70;;;58.10;;
23802;SDS011;12082;51.786;6.018;2023-07-13T03:31:27;61.00;;;57.87;;
23802;SDS011;12082;51.786;6.018;2023-07-13T03:33:55;65.60;;;61.63;;
23802;SDS011;12082;51.786;6.018;2023-07-13T03:36:23;65.27;;;61.50;;
23802;SDS011;12082;51.786;6.018;2023-07-13T03:38:51;66.80;;;62.43;;
23802;SDS011;12082;51.786;6.018;2023-07-13T03:41:19;65.13;;;61.63;;
23802;SDS011;12082;51.786;6.018;2023-07-13T03:43:45;67.90;;;64.07;;
23802;SDS011;12082;51.786;6.018;2023-07-13T03:46:13;68.03;;;64.43;;
23802;SDS011;12082;51.786;6.018;2023-07-13T03:48:39;67.93;;;63.90;;
23802;SDS011;12082;51.786;6.018;2023-07-13T03:51:07;65.77;;;61.70;;
23802;SDS011;12082;51.786;6.018;2023-07-13T03:53:33;69.80;;;65.47;;
23802;SDS011;12082;51.786;6.018;2023-07-13T03:56:02;69.90;;;65.73;;
23802;SDS011;12082;51.786;6.018;2023-07-13T03:58:32;66.47;;;62.77;;
23802;SDS011;12082;51.786;6.018;2023-07-13T04:01:00;69.20;;;65.27;;
23802;SDS011;12082;51.786;6.018;2023-07-13T04:03:27;70.27;;;66.47;;
23802;SDS011;12082;51.786;6.018;2023-07-13T04:05:55;71.33;;;67.07;;
23802;SDS011;12082;51.786;6.018;2023-07-13T04:08:24;71.40;;;67.40;;
23802;SDS011;12082;51.786;6.018;2023-07-13T04:10:54;69.30;;;65.60;;
23802;SDS011;12082;51.786;6.018;2023-07-13T04:13:20;69.83;;;66.13;;
23802;SDS011;12082;51.786;6.018;2023-07-13T04:15:45;70.73;;;66.70;;
23802;SDS011;12082;51.786;6.018;2023-07-13T04:18:11;71.53;;;66.80;;
23802;SDS011;12082;51.786;6.018;2023-07-13T04:20:36;68.47;;;64.47;;
23802;SDS011;12082;51.786;6.018;2023-07-13T04:23:02;65.40;;;61.77;;
23802;SDS011;12082;51.786;6.018;2023-07-13T04:25:27;68.47;;;64.37;;
23802;SDS011;12082;51.786;6.018;2023-07-13T04:27:53;69.00;;;64.93;;
23802;SDS011;12082;51.786;6.018;2023-07-13T04:30:19;67.63;;;63.77;;
23802;SDS011;12082;51.786;6.018;2023-07-13T04:32:45;67.43;;;62.87;;
23802;SDS011;12082;51.786;6.018;2023-07-13T04:35:11;67.53;;;63.03;;
23802;SDS011;12082;51.786;6.018;2023-07-13T04:37:37;64.03;;;60.20;;
23802;SDS011;12082;51.786;6.018;2023-07-13T04:40:03;64.27;;;60.33;;
23802;SDS011;12082;51.786;6.018;2023-07-13T04:42:29;63.90;;;60.40;;
23802;SDS011;12082;51.786;6.018;2023-07-13T04:44:55;64.90;;;60.97;;
23802;SDS011;12082;51.786;6.018;2023-07-13T04:47:21;64.00;;;60.13;;
23802;SDS011;12082;51.786;6.018;2023-07-13T04:49:46;63.70;;;59.17;;
23802;SDS011;12082;51.786;6.018;2023-07-13T04:52:12;64.30;;;60.47;;
23802;SDS011;12082;51.786;6.018;2023-07-13T04:54:37;61.17;;;56.97;;
23802;SDS011;12082;51.786;6.018;2023-07-13T04:57:04;58.00;;;54.77;;
23802;SDS011;12082;51.786;6.018;2023-07-13T04:59:32;57.53;;;54.20;;
23802;SDS011;12082;51.786;6.018;2023-07-13T05:01:58;55.60;;;52.03;;
23802;SDS011;12082;51.786;6.018;2023-07-13T05:04:23;51.80;;;48.60;;
23802;SDS011;12082;51.786;6.018;2023-07-13T05:06:49;48.80;;;45.90;;
23802;SDS011;12082;51.786;6.018;2023-07-13T05:09:14;46.20;;;43.17;;
23802;SDS011;12082;51.786;6.018;2023-07-13T05:11:40;44.30;;;41.37;;
23802;SDS011;12082;51.786;6.018;2023-07-13T05:14:05;42.90;;;40.27;;
23802;SDS011;12082;51.786;6.018;2023-07-13T05:16:31;40.90;;;37.93;;
23802;SDS011;12082;51.786;6.018;2023-07-13T05:18:57;40.90;;;37.60;;
23802;SDS011;12082;51.786;6.018;2023-07-13T05:21:23;38.53;;;35.73;;
23802;SDS011;12082;51.786;6.018;2023-07-13T05:23:48;36.60;;;33.90;;
23802;SDS011;12082;51.786;6.018;2023-07-13T05:26:14;35.40;;;32.67;;
23802;SDS011;12082;51.786;6.018;2023-07-13T05:28:40;32.93;;;30.83;;
23802;SDS011;12082;51.786;6.018;2023-07-13T05:31:07;34.43;;;31.80;;
23802;SDS011;12082;51.786;6.018;2023-07-13T05:33:34;34.60;;;31.83;;
23802;SDS011;12082;51.786;6.018;2023-07-13T05:35:59;33.57;;;31.00;;
23802;SDS011;12082;51.786;6.018;2023-07-13T05:38:28;31.63;;;28.67;;
23802;SDS011;12082;51.786;6.018;2023-07-13T05:40:54;34.40;;;31.23;;
23802;SDS011;12082;51.786;6.018;2023-07-13T05:43:21;35.20;;;31.87;;
23802;SDS011;12082;51.786;6.018;2023-07-13T05:45:47;33.93;;;30.63;;
23802;SDS011;12082;51.786;6.018;2023-07-13T05:48:13;36.63;;;33.47;;
23802;SDS011;12082;51.786;6.018;2023-07-13T05:50:39;35.23;;;32.47;;
23802;SDS011;12082;51.786;6.018;2023-07-13T05:53:05;38.23;;;34.33;;
23802;SDS011;12082;51.786;6.018;2023-07-13T05:55:31;42.90;;;39.23;;
23802;SDS011;12082;51.786;6.018;2023-07-13T05:57:57;40.90;;;36.97;;
23802;SDS011;12082;51.786;6.018;2023-07-13T06:00:24;44.17;;;40.63;;
23802;SDS011;12082;51.786;6.018;2023-07-13T06:02:50;43.93;;;39.80;;
23802;SDS011;12082;51.786;6.018;2023-07-13T06:05:15;44.70;;;40.20;;
23802;SDS011;12082;51.786;6.018;2023-07-13T06:07:41;42.67;;;38.67;;
23802;SDS011;12082;51.786;6.018;2023-07-13T06:10:07;43.80;;;39.57;;
23802;SDS011;12082;51.786;6.018;2023-07-13T06:12:33;41.70;;;37.60;;
23802;SDS011;12082;51.786;6.018;2023-07-13T06:14:59;40.90;;;36.57;;
23802;SDS011;12082;51.786;6.018;2023-07-13T06:17:24;43.53;;;36.80;;
23802;SDS011;12082;51.786;6.018;2023-07-13T06:19:50;43.23;;;38.73;;
23802;SDS011;12082;51.786;6.018;2023-07-13T06:22:15;43.03;;;35.13;;
23802;SDS011;12082;51.786;6.018;2023-07-13T06:24:41;35.83;;;32.10;;
23802;SDS011;12082;51.786;6.018;2023-07-13T06:27:07;39.73;;;31.50;;
23802;SDS011;12082;51.786;6.018;2023-07-13T06:29:32;31.70;;;28.43;;
23802;SDS011;12082;51.786;6.018;2023-07-13T06:31:58;36.53;;;29.47;;
23802;SDS011;12082;51.786;6.018;2023-07-13T06:34:23;34.27;;;30.33;;
23802;SDS011;12082;51.786;6.018;2023-07-13T06:36:49;37.23;;;29.47;;
23802;SDS011;12082;51.786;6.018;2023-07-13T06:39:14;38.00;;;34.03;;
23802;SDS011;12082;51.786;6.018;2023-07-13T06:41:40;33.37;;;28.47;;
23802;SDS011;12082;51.786;6.018;2023-07-13T06:44:05;36.33;;;31.07;;
23802;SDS011;12082;51.786;6.018;2023-07-13T06:46:31;36.20;;;30.13;;
23802;SDS011;12082;51.786;6.018;2023-07-13T06:48:57;36.87;;;31.30;;
23802;SDS011;12082;51.786;6.018;2023-07-13T06:51:23;33.00;;;29.60;;
23802;SDS011;12082;51.786;6.018;2023-07-13T06:53:48;32.37;;;29.07;;
23802;SDS011;12082;51.786;6.018;2023-07-13T06:56:15;33.23;;;29.73;;
23802;SDS011;12082;51.786;6.018;2023-07-13T06:58:41;42.70;;;27.47;;
23802;SDS011;12082;51.786;6.018;2023-07-13T07:01:06;37.73;;;26.37;;
23802;SDS011;12082;51.786;6.018;2023-07-13T07:03:32;28.60;;;25.63;;
23802;SDS011;12082;51.786;6.018;2023-07-13T07:06:01;33.20;;;24.70;;
23802;SDS011;12082;51.786;6.018;2023-07-13T07:08:53;31.27;;;25.30;;
23802;SDS011;12082;51.786;6.018;2023-07-13T07:11:20;32.00;;;27.07;;
23802;SDS011;12082;51.786;6.018;2023-07-13T07:13:48;35.47;;;26.83;;
23802;SDS011;12082;51.786;6.018;2023-07-13T07:16:14;32.97;;;29.50;;
23802;SDS011;12082;51.786;6.018;2023-07-13T07:18:40;30.87;;;27.33;;
23802;SDS011;12082;51.786;6.018;2023-07-13T07:21:05;30.30;;;27.03;;
23802;SDS011;12082;51.786;6.018;2023-07-13T07:23:31;32.00;;;28.60;;
23802;SDS011;12082;51.786;6.018;2023-07-13T07:25:57;34.33;;;29.03;;
23802;SDS011;12082;51.786;6.018;2023-07-13T07:28:23;32.40;;;28.80;;
23802;SDS011;12082;51.786;6.018;2023-07-13T07:30:51;29.93;;;27.10;;
23802;SDS011;12082;51.786;6.018;2023-07-13T07:33:18;33.43;;;29.27;;
23802;SDS011;12082;51.786;6.018;2023-07-13T07:35:43;35.90;;;30.57;;
23802;SDS011;12082;51.786;6.018;2023-07-13T07:38:09;35.77;;;30.87;;
23802;SDS011;12082;51.786;6.018;2023-07-13T07:40:38;42.20;;;37.77;;
23802;SDS011;12082;51.786;6.018;2023-07-13T07:43:08;34.60;;;30.07;;
23802;SDS011;12082;51.786;6.018;2023-07-13T07:45:35;33.80;;;30.47;;
23802;SDS011;12082;51.786;6.018;2023-07-13T07:48:02;34.17;;;30.60;;
23802;SDS011;12082;51.786;6.018;2023-07-13T07:50:29;39.27;;;29.07;;
23802;SDS011;12082;51.786;6.018;2023-07-13T07:52:54;35.37;;;28.53;;
23802;SDS011;12082;51.786;6.018;2023-07-13T07:55:23;28.43;;;25.57;;
23802;SDS011;12082;51.786;6.018;2023-07-13T07:57:52;32.17;;;20.23;;
23802;SDS011;12082;51.786;6.018;2023-07-13T08:00:18;23.50;;;21.07;;
23802;SDS011;12082;51.786;6.018;2023-07-13T08:02:44;21.97;;;18.97;;
23802;SDS011;12082;51.786;6.018;2023-07-13T08:05:10;24.87;;;18.97;;
23802;SDS011;12082;51.786;6.018;2023-07-13T08:07:36;27.40;;;18.87;;
23802;SDS011;12082;51.786;6.018;2023-07-13T08:10:03;26.13;;;17.57;;
23802;SDS011;12082;51.786;6.018;2023-07-13T08:12:36;28.07;;;18.33;;
23802;SDS011;12082;51.786;6.018;2023-07-13T08:15:02;27.10;;;19.27;;
23802;SDS011;12082;51.786;6.018;2023-07-13T08:17:28;23.70;;;19.23;;
23802;SDS011;12082;51.786;6.018;2023-07-13T08:19:54;22.57;;;18.23;;
23802;SDS011;12082;51.786;6.018;2023-07-13T08:22:20;29.10;;;19.10;;
23802;SDS011;12082;51.786;6.018;2023-07-13T08:24:45;26.37;;;18.80;;
23802;SDS011;12082;51.786;6.018;2023-07-13T08:27:12;20.63;;;18.53;;
23802;SDS011;12082;51.786;6.018;2023-07-13T08:29:38;23.50;;;21.07;;
23802;SDS011;12082;51.786;6.018;2023-07-13T08:32:05;28.20;;;22.70;;
23802;SDS011;12082;51.786;6.018;2023-07-13T08:34:32;29.53;;;23.97;;
23802;SDS011;12082;51.786;6.018;2023-07-13T08:36:57;21.50;;;19.57;;
23802;SDS011;12082;51.786;6.018;2023-07-13T08:39:23;27.50;;;21.03;;
23802;SDS011;12082;51.786;6.018;2023-07-13T08:41:51;23.53;;;20.33;;
23802;SDS011;12082;51.786;6.018;2023-07-13T08:44:25;22.93;;;20.77;;
23802;SDS011;12082;51.786;6.018;2023-07-13T08:47:01;27.00;;;20.43;;
23802;SDS011;12082;51.786;6.018;2023-07-13T08:49:27;27.37;;;21.33;;
23802;SDS011;12082;51.786;6.018;2023-07-13T08:51:59;23.80;;;21.33;;
23802;SDS011;12082;51.786;6.018;2023-07-13T08:54:38;26.23;;;20.80;;
23802;SDS011;12082;51.786;6.018;2023-07-13T08:57:13;26.17;;;20.90;;
23802;SDS011;12082;51.786;6.018;2023-07-13T08:59:41;25.37;;;21.00;;
23802;SDS011;12082;51.786;6.018;2023-07-13T09:04:50;25.40;;;20.63;;
23802;SDS011;12082;51.786;6.018;2023-07-13T09:15:34;22.77;;;17.47;;
23802;SDS011;12082;51.786;6.018;2023-07-13T09:20:52;21.03;;;15.47;;
23802;SDS011;12082;51.786;6.018;2023-07-13T09:23:23;16.87;;;15.10;;
23802;SDS011;12082;51.786;6.018;2023-07-13T09:25:54;14.63;;;12.80;;
23802;SDS011;12082;51.786;6.018;2023-07-13T09:28:33;15.20;;;13.57;;
23802;SDS011;12082;51.786;6.018;2023-07-13T09:31:17;15.57;;;13.73;;
23802;SDS011;12082;51.786;6.018;2023-07-13T09:33:48;13.83;;;12.53;;
23802;SDS011;12082;51.786;6.018;2023-07-13T09:38:45;13.90;;;10.97;;
23802;SDS011;12082;51.786;6.018;2023-07-13T09:41:28;18.93;;;13.43;;
23802;SDS011;12082;51.786;6.018;2023-07-13T09:44:16;15.97;;;13.03;;
23802;SDS011;12082;51.786;6.018;2023-07-13T09:46:47;14.97;;;12.83;;
23802;SDS011;12082;51.786;6.018;2023-07-13T09:49:17;14.50;;;13.00;;
23802;SDS011;12082;51.786;6.018;2023-07-13T09:51:44;15.17;;;13.67;;
23802;SDS011;12082;51.786;6.018;2023-07-13T09:54:24;17.13;;;14.47;;
23802;SDS011;12082;51.786;6.018;2023-07-13T09:56:56;16.97;;;14.33;;
23802;SDS011;12082;51.786;6.018;2023-07-13T09:59:26;17.00;;;14.73;;
23802;SDS011;12082;51.786;6.018;2023-07-13T10:01:54;20.63;;;15.43;;
23802;SDS011;12082;51.786;6.018;2023-07-13T10:04:22;19.17;;;17.13;;
23802;SDS011;12082;51.786;6.018;2023-07-13T10:06:52;19.13;;;17.63;;
23802;SDS011;12082;51.786;6.018;2023-07-13T10:09:33;20.37;;;18.23;;
23802;SDS011;12082;51.786;6.018;2023-07-13T10:11:59;19.13;;;17.53;;
23802;SDS011;12082;51.786;6.018;2023-07-13T10:14:24;18.80;;;17.03;;
23802;SDS011;12082;51.786;6.018;2023-07-13T10:16:52;19.70;;;18.20;;
23802;SDS011;12082;51.786;6.018;2023-07-13T10:19:25;19.50;;;17.60;;
23802;SDS011;12082;51.786;6.018;2023-07-13T10:21:53;18.53;;;17.00;;
23802;SDS011;12082;51.786;6.018;2023-07-13T10:24:21;20.80;;;19.13;;
23802;SDS011;12082;51.786;6.018;2023-07-13T10:26:54;17.97;;;16.70;;
23802;SDS011;12082;51.786;6.018;2023-07-13T10:29:42;19.27;;;17.63;;
23802;SDS011;12082;51.786;6.018;2023-07-13T10:32:13;26.93;;;24.50;;
23802;SDS011;12082;51.786;6.018;2023-07-13T10:34:39;21.77;;;19.90;;
23802;SDS011;12082;51.786;6.018;2023-07-13T10:37:14;21.80;;;20.13;;
23802;SDS011;12082;51.786;6.018;2023-07-13T10:39:43;23.07;;;20.87;;
23802;SDS011;12082;51.786;6.018;2023-07-13T10:42:11;23.33;;;21.27;;
23802;SDS011;12082;51.786;6.018;2023-07-13T10:44:52;22.97;;;21.47;;
23802;SDS011;12082;51.786;6.018;2023-07-13T10:47:17;25.70;;;23.03;;
23802;SDS011;12082;51.786;6.018;2023-07-13T10:49:43;31.40;;;28.50;;
23802;SDS011;12082;51.786;6.018;2023-07-13T10:58:19;59.47;;;55.10;;
23802;SDS011;12082;51.786;6.018;2023-07-13T11:16:37;80.13;;;73.80;;
23802;SDS011;12082;51.786;6.018;2023-07-13T11:22:09;66.07;;;61.50;;
23802;SDS011;12082;51.786;6.018;2023-07-13T11:25:38;68.20;;;63.53;;
23802;SDS011;12082;51.786;6.018;2023-07-13T11:30:36;71.13;;;66.40;;
23802;SDS011;12082;51.786;6.018;2023-07-13T11:33:18;69.13;;;64.33;;
23802;SDS011;12082;51.786;6.018;2023-07-13T11:38:17;74.93;;;69.93;;
23802;SDS011;12082;51.786;6.018;2023-07-13T11:40:46;71.87;;;66.87;;
23802;SDS011;12082;51.786;6.018;2023-07-13T11:43:16;73.10;;;68.37;;
23802;SDS011;12082;51.786;6.018;2023-07-13T11:45:43;64.77;;;60.50;;
23802;SDS011;12082;51.786;6.018;2023-07-13T11:48:24;53.87;;;50.40;;
23802;SDS011;12082;51.786;6.018;2023-07-13T11:50:53;40.70;;;37.87;;
23802;SDS011;12082;51.786;6.018;2023-07-13T11:53:29;38.83;;;36.20;;
23802;SDS011;12082;51.786;6.018;2023-07-13T11:56:03;46.37;;;43.60;;
23802;SDS011;12082;51.786;6.018;2023-07-13T11:58:28;49.77;;;46.33;;
23802;SDS011;12082;51.786;6.018;2023-07-13T12:00:55;46.80;;;43.93;;
23802;SDS011;12082;51.786;6.018;2023-07-13T12:03:25;49.53;;;46.43;;
23802;SDS011;12082;51.786;6.018;2023-07-13T12:06:01;43.33;;;40.77;;
23802;SDS011;12082;51.786;6.018;2023-07-13T12:08:30;46.77;;;43.70;;
23802;SDS011;12082;51.786;6.018;2023-07-13T12:11:06;46.20;;;43.27;;
23802;SDS011;12082;51.786;6.018;2023-07-13T12:13:40;49.63;;;46.17;;
23802;SDS011;12082;51.786;6.018;2023-07-13T12:16:16;49.60;;;46.47;;
23802;SDS011;12082;51.786;6.018;2023-07-13T12:18:48;43.03;;;40.43;;
23802;SDS011;12082;51.786;6.018;2023-07-13T12:21:17;42.27;;;39.67;;
23802;SDS011;12082;51.786;6.018;2023-07-13T12:23:44;42.73;;;40.33;;
23802;SDS011;12082;51.786;6.018;2023-07-13T12:26:13;51.93;;;48.83;;
23802;SDS011;12082;51.786;6.018;2023-07-13T12:31:25;35.13;;;33.03;;
23802;SDS011;12082;51.786;6.018;2023-07-13T12:33:56;34.87;;;32.30;;
23802;SDS011;12082;51.786;6.018;2023-07-13T12:36:33;32.97;;;30.40;;
23802;SDS011;12082;51.786;6.018;2023-07-13T12:39:47;32.37;;;30.00;;
23802;SDS011;12082;51.786;6.018;2023-07-13T12:47:26;33.40;;;31.30;;
23802;SDS011;12082;51.786;6.018;2023-07-13T12:49:57;32.00;;;29.60;;
23802;SDS011;12082;51.786;6.018;2023-07-13T12:52:28;30.83;;;28.97;;
23802;SDS011;12082;51.786;6.018;2023-07-13T12:54:56;28.57;;;26.47;;
23802;SDS011;12082;51.786;6.018;2023-07-13T13:03:07;25.67;;;23.80;;
23802;SDS011;12082;51.786;6.018;2023-07-13T13:05:46;22.13;;;20.30;;
23802;SDS011;12082;51.786;6.018;2023-07-13T13:08:11;19.40;;;17.63;;
23802;SDS011;12082;51.786;6.018;2023-07-13T13:10:37;18.07;;;16.60;;
23802;SDS011;12082;51.786;6.018;2023-07-13T13:13:04;12.97;;;11.90;;
23802;SDS011;12082;51.786;6.018;2023-07-13T13:15:29;12.23;;;11.30;;
23802;SDS011;12082;51.786;6.018;2023-07-13T13:17:55;12.03;;;10.63;;
23802;SDS011;12082;51.786;6.018;2023-07-13T13:20:23;10.60;;;9.53;;
23802;SDS011;12082;51.786;6.018;2023-07-13T13:22:50;11.70;;;10.60;;
23802;SDS011;12082;51.786;6.018;2023-07-13T13:25:17;12.47;;;11.23;;
23802;SDS011;12082;51.786;6.018;2023-07-13T13:27:43;16.10;;;11.23;;
23802;SDS011;12082;51.786;6.018;2023-07-13T13:32:37;16.60;;;11.80;;
23802;SDS011;12082;51.786;6.018;2023-07-13T13:35:14;13.33;;;12.10;;
23802;SDS011;12082;51.786;6.018;2023-07-13T13:37:44;12.97;;;11.77;;
23802;SDS011;12082;51.786;6.018;2023-07-13T13:40:18;15.37;;;12.90;;
23802;SDS011;12082;51.786;6.018;2023-07-13T13:42:52;14.43;;;13.33;;
23802;SDS011;12082;51.786;6.018;2023-07-13T13:45:19;13.90;;;12.83;;
23802;SDS011;12082;51.786;6.018;2023-07-13T13:47:46;14.80;;;11.73;;
23802;SDS011;12082;51.786;6.018;2023-07-13T13:50:14;13.00;;;11.80;;
23802;SDS011;12082;51.786;6.018;2023-07-13T13:52:41;11.87;;;10.87;;
23802;SDS011;12082;51.786;6.018;2023-07-13T13:55:14;12.43;;;11.17;;
23802;SDS011;12082;51.786;6.018;2023-07-13T13:57:45;10.87;;;10.00;;
23802;SDS011;12082;51.786;6.018;2023-07-13T14:00:12;11.37;;;10.13;;
23802;SDS011;12082;51.786;6.018;2023-07-13T14:02:42;10.30;;;9.30;;
23802;SDS011;12082;51.786;6.018;2023-07-13T14:05:13;11.23;;;10.23;;
23802;SDS011;12082;51.786;6.018;2023-07-13T14:07:40;12.27;;;11.17;;
23802;SDS011;12082;51.786;6.018;2023-07-13T14:10:11;10.67;;;9.80;;
23802;SDS011;12082;51.786;6.018;2023-07-13T14:12:44;9.80;;;8.83;;
23802;SDS011;12082;51.786;6.018;2023-07-13T14:15:22;10.30;;;9.50;;
23802;SDS011;12082;51.786;6.018;2023-07-13T14:17:50;10.73;;;9.70;;
23802;SDS011;12082;51.786;6.018;2023-07-13T14:20:17;10.63;;;9.40;;
23802;SDS011;12082;51.786;6.018;2023-07-13T14:22:43;10.57;;;9.47;;
23802;SDS011;12082;51.786;6.018;2023-07-13T14:25:13;9.87;;;9.17;;
23802;SDS011;12082;51.786;6.018;2023-07-13T14:27:40;9.77;;;9.07;;
23802;SDS011;12082;51.786;6.018;2023-07-13T14:30:13;9.70;;;8.90;;
23802;SDS011;12082;51.786;6.018;2023-07-13T14:32:41;10.17;;;9.17;;
23802;SDS011;12082;51.786;6.018;2023-07-13T14:35:10;10.87;;;10.07;;
23802;SDS011;12082;51.786;6.018;2023-07-13T14:37:37;180.40;;;38.50;;
23802;SDS011;12082;51.786;6.018;2023-07-13T14:40:11;13.07;;;9.93;;
23802;SDS011;12082;51.786;6.018;2023-07-13T14:42:46;15.43;;;10.53;;
23802;SDS011;12082;51.786;6.018;2023-07-13T14:45:13;13.50;;;10.57;;
23802;SDS011;12082;51.786;6.018;2023-07-13T14:47:40;12.70;;;11.57;;
23802;SDS011;12082;51.786;6.018;2023-07-13T14:50:11;14.70;;;13.50;;
23802;SDS011;12082;51.786;6.018;2023-07-13T14:52:41;14.90;;;13.80;;
23802;SDS011;12082;51.786;6.018;2023-07-13T14:55:11;15.00;;;13.80;;
23802;SDS011;12082;51.786;6.018;2023-07-13T14:57:37;15.03;;;13.83;;
23802;SDS011;12082;51.786;6.018;2023-07-13T15:00:04;14.70;;;13.50;;
23802;SDS011;12082;51.786;6.018;2023-07-13T15:02:37;13.27;;;12.40;;
23802;SDS011;12082;51.786;6.018;2023-07-13T15:05:08;15.60;;;14.33;;
23802;SDS011;12082;51.786;6.018;2023-07-13T15:07:59;13.33;;;12.33;;
23802;SDS011;12082;51.786;6.018;2023-07-13T15:10:32;10.83;;;9.83;;
23802;SDS011;12082;51.786;6.018;2023-07-13T15:12:59;11.37;;;10.33;;
23802;SDS011;12082;51.786;6.018;2023-07-13T15:15:28;12.20;;;11.20;;
23802;SDS011;12082;51.786;6.018;2023-07-13T15:17:57;12.20;;;11.10;;
23802;SDS011;12082;51.786;6.018;2023-07-13T15:22:57;10.43;;;9.50;;
23802;SDS011;12082;51.786;6.018;2023-07-13T15:25:25;10.87;;;9.80;;
23802;SDS011;12082;51.786;6.018;2023-07-13T15:27:52;9.50;;;8.80;;
23802;SDS011;12082;51.786;6.018;2023-07-13T15:30:19;10.00;;;8.63;;
23802;SDS011;12082;51.786;6.018;2023-07-13T15:32:45;10.40;;;9.30;;
23802;SDS011;12082;51.786;6.018;2023-07-13T15:37:47;11.10;;;10.20;;